Time;durP1;ratioP1;P1;durP2;ratioP2;P2;SDS_P1;SDS_P2;PMS_P1;PMS_P2;Temp;Humidity;BMP_temperature;BMP_pressure;BME280_temperature;BME280_humidity;BME280_pressure;Samples;Min_cycle;Max_cycle;Signal;HPM_P1;HPM_P2
2022/06/12 00:00:30;;;;;;;;;0.67;0.67;;;;;18.95;48.85;101799.34;5075280;27;45358;-69
2022/06/12 00:02:59;;;;;;;;;1.00;1.00;;;;;18.91;48.80;101797.84;5077101;28;45436;-70
2022/06/12 00:05:28;;;;;;;;;3.00;1.67;;;;;18.93;49.03;101800.41;5075596;27;45330;-72
2022/06/12 00:07:53;;;;;;;;;3.00;2.00;;;;;18.88;48.56;101791.78;5074819;28;47279;-71
2022/06/12 00:10:19;;;;;;;;;2.00;2.00;;;;;18.92;48.91;101796.00;5075623;27;45354;-71
2022/06/12 00:12:46;;;;;;;;;2.00;1.00;;;;;18.85;48.93;101793.72;5074956;28;45545;-70
2022/06/12 00:15:15;;;;;;;;;2.67;1.00;;;;;18.88;49.12;101789.97;5074880;28;45496;-67
2022/06/12 00:17:41;;;;;;;;;3.33;2.00;;;;;18.80;49.07;101786.97;5075693;27;46253;-69
2022/06/12 00:20:08;;;;;;;;;1.00;1.00;;;;;18.74;49.58;101790.94;5076102;27;45320;-66
2022/06/12 00:22:33;;;;;;;;;1.00;1.00;;;;;18.74;49.35;101787.38;5075860;27;45902;-68
2022/06/12 00:24:59;;;;;;;;;2.00;2.00;;;;;18.66;49.45;101792.47;5091567;27;45329;-68
2022/06/12 00:27:24;;;;;;;;;2.00;2.00;;;;;18.66;49.82;101793.34;5076248;27;45464;-67
2022/06/12 00:29:50;;;;;;;;;3.00;2.00;;;;;18.57;49.86;101783.16;5075960;27;45352;-69
2022/06/12 00:32:17;;;;;;;;;3.33;2.00;;;;;18.53;50.26;101793.31;5076087;27;45452;-70
2022/06/12 00:34:49;;;;;;;;;3.00;1.33;;;;;18.50;50.36;101803.44;5076151;27;45553;-68
2022/06/12 00:37:17;;;;;;;;;1.00;1.00;;;;;18.39;50.80;101793.41;5075283;27;47161;-72
2022/06/12 00:39:49;;;;;;;;;1.00;1.00;;;;;18.37;50.89;101794.50;5073987;27;45353;-70
2022/06/12 00:42:29;;;;;;;;;0.67;0.33;;;;;18.32;50.96;101802.88;5075837;27;45417;-73
2022/06/12 00:44:57;;;;;;;;;1.00;1.00;;;;;18.22;51.24;101799.09;5076248;27;45234;-70
2022/06/12 00:47:23;;;;;;;;;1.00;1.00;;;;;18.19;51.26;101799.31;5073867;28;47722;-70
2022/06/12 00:50:03;;;;;;;;;1.00;1.00;;;;;18.16;51.48;101803.09;5075545;27;45345;-70
2022/06/12 00:52:37;;;;;;;;;2.00;1.00;;;;;18.13;51.76;101797.91;5091588;27;45467;-70
2022/06/12 00:55:29;;;;;;;;;1.00;1.00;;;;;18.12;51.89;101804.28;5075982;27;45433;-70
2022/06/12 00:58:03;;;;;;;;;4.00;2.00;;;;;18.04;51.77;101801.22;5075297;28;45497;-71
2022/06/12 01:00:30;;;;;;;;;6.00;1.67;;;;;18.01;51.88;101787.97;5075369;27;45504;-70
2022/06/12 01:02:58;;;;;;;;;3.33;2.00;;;;;18.00;52.20;101775.50;5075996;27;45372;-67
2022/06/12 01:08:08;;;;;;;;;1.00;1.00;;;;;18.01;52.09;101790.69;5075177;28;45712;-70
2022/06/12 01:10:37;;;;;;;;;2.00;0.00;;;;;17.93;52.27;101793.88;5075351;27;45268;-70
2022/06/12 01:13:19;;;;;;;;;1.00;1.00;;;;;17.96;52.20;101795.50;5074073;28;45222;-72
2022/06/12 01:15:58;;;;;;;;;2.00;1.33;;;;;18.03;52.36;101798.66;5076946;28;45592;-68
2022/06/12 01:18:29;;;;;;;;;1.67;1.67;;;;;18.01;51.99;101804.13;5078646;27;46248;-68
2022/06/12 01:21:44;;;;;;;;;5.00;4.00;;;;;18.01;52.56;101806.81;5078672;27;45265;-67
2022/06/12 01:24:47;;;;;;;;;1.67;1.33;;;;;17.94;52.45;101800.13;5059557;28;45324;-69
2022/06/12 01:27:30;;;;;;;;;1.67;1.00;;;;;17.90;52.94;101804.00;5078684;28;45433;-67
2022/06/12 01:30:33;;;;;;;;;2.00;2.00;;;;;17.87;52.88;101806.91;5078430;28;46474;-67
2022/06/12 01:33:25;;;;;;;;;3.00;2.00;;;;;17.82;53.18;101807.19;5058926;28;45429;-68
2022/06/12 01:36:13;;;;;;;;;2.00;1.00;;;;;17.81;52.86;101800.09;5058510;28;45418;-71
2022/06/12 01:38:54;;;;;;;;;2.00;0.00;;;;;17.82;52.99;101811.72;5059101;28;45357;-70
2022/06/12 01:41:29;;;;;;;;;3.67;1.67;;;;;17.82;53.04;101809.03;5062752;28;45515;-68
2022/06/12 01:44:18;;;;;;;;;1.00;1.00;;;;;17.80;52.68;101802.88;5061230;28;45346;-66
2022/06/12 01:46:59;;;;;;;;;1.00;1.00;;;;;17.72;52.77;101802.56;5070888;28;45401;-71
2022/06/12 01:49:54;;;;;;;;;1.33;1.33;;;;;17.63;53.19;101803.97;5077671;27;45301;-70
2022/06/12 01:52:32;;;;;;;;;2.00;0.33;;;;;17.53;53.36;101809.09;5057423;28;45397;-70
2022/06/12 01:55:08;;;;;;;;;2.33;1.33;;;;;17.42;53.38;101814.31;5090390;27;45290;-70
2022/06/12 01:57:50;;;;;;;;;1.00;1.00;;;;;17.34;53.49;101816.66;5057879;28;45366;-71
2022/06/12 02:00:20;;;;;;;;;1.00;1.00;;;;;17.36;53.98;101820.13;5076907;28;45241;-69
2022/06/12 02:02:53;;;;;;;;;5.00;2.00;;;;;17.29;53.90;101818.78;5077786;27;46239;-69
2022/06/12 02:05:36;;;;;;;;;2.67;1.00;;;;;17.25;54.06;101814.56;5078093;27;45484;-71
2022/06/12 02:08:18;;;;;;;;;0.00;0.00;;;;;17.19;54.22;101818.53;5078456;27;45288;-70
2022/06/12 02:10:50;;;;;;;;;1.00;1.00;;;;;17.14;54.45;101814.38;5078323;27;45284;-71
2022/06/12 02:13:22;;;;;;;;;2.33;0.00;;;;;17.10;53.95;101824.47;5077926;27;45440;-68
2022/06/12 02:15:53;;;;;;;;;2.00;2.00;;;;;17.10;54.12;101824.47;5093396;27;45422;-70
2022/06/12 02:18:25;;;;;;;;;1.67;1.67;;;;;17.15;54.32;101824.19;5077804;27;45365;-69
2022/06/12 02:21:03;;;;;;;;;3.67;2.00;;;;;17.10;54.31;101814.59;5077982;27;45346;-69
2022/06/12 02:23:59;;;;;;;;;2.33;2.33;;;;;17.12;54.06;101819.00;5077412;27;45246;-67
2022/06/12 02:26:43;;;;;;;;;1.00;1.00;;;;;17.18;54.05;101818.59;5073113;27;45717;-71
2022/06/12 02:29:20;;;;;;;;;1.00;1.00;;;;;17.12;54.62;101822.56;5077428;28;45263;-72
2022/06/12 02:31:51;;;;;;;;;1.00;1.00;;;;;17.04;54.63;101824.84;5078137;27;45358;-68
2022/06/12 02:34:33;;;;;;;;;3.67;2.00;;;;;16.96;54.89;101822.66;5076124;27;47513;-69
2022/06/12 02:37:04;;;;;;;;;2.33;2.00;;;;;16.95;54.84;101820.09;5093085;27;45509;-69
2022/06/12 02:39:37;;;;;;;;;1.67;1.67;;;;;16.96;55.21;101828.03;5077427;27;45332;-69
2022/06/12 02:42:17;;;;;;;;;2.00;1.00;;;;;16.85;55.38;101818.94;5077723;27;45403;-70
2022/06/12 02:44:54;;;;;;;;;2.33;1.00;;;;;16.83;55.51;101827.09;5077060;27;46524;-68
2022/06/12 02:47:24;;;;;;;;;2.67;1.00;;;;;16.76;55.71;101825.72;5077307;27;45325;-68
2022/06/12 02:49:51;;;;;;;;;3.00;2.00;;;;;16.72;55.67;101827.75;5077160;27;45323;-69
2022/06/12 02:52:25;;;;;;;;;1.00;1.00;;;;;16.73;55.55;101816.03;5110120;27;45898;-68
2022/06/12 02:55:03;;;;;;;;;2.33;1.67;;;;;16.75;55.65;101821.31;5075400;28;45423;-69
2022/06/12 02:57:36;;;;;;;;;1.67;1.33;;;;;16.77;55.51;101822.09;5077044;27;45291;-71
2022/06/12 03:00:12;;;;;;;;;2.33;1.00;;;;;16.76;55.56;101817.66;5077180;27;45309;-71
2022/06/12 03:02:48;;;;;;;;;3.00;0.00;;;;;16.77;55.97;101832.81;5077447;27;45463;-66
2022/06/12 03:05:20;;;;;;;;;4.00;2.00;;;;;16.71;56.16;101822.47;5076697;27;46591;-70
2022/06/12 03:07:49;;;;;;;;;6.67;3.67;;;;;16.68;56.08;101822.69;5077265;27;45269;-69
2022/06/12 03:10:19;;;;;;;;;1.00;1.00;;;;;16.68;56.12;101822.69;5075876;27;45420;-70
2022/06/12 03:12:45;;;;;;;;;3.33;2.00;;;;;16.69;56.25;101821.72;5077289;27;45547;-68
2022/06/12 03:15:49;;;;;;;;;3.00;1.33;;;;;16.66;56.05;101809.28;5076692;27;46972;-69
2022/06/12 03:18:40;;;;;;;;;4.33;2.67;;;;;16.66;56.56;101817.34;5077229;28;45396;-67
2022/06/12 03:21:21;;;;;;;;;6.67;2.00;;;;;16.68;56.60;101828.06;5076066;28;45432;-69
2022/06/12 03:24:12;;;;;;;;;1.67;1.67;;;;;16.63;57.09;101822.03;5076433;27;45501;-67
2022/06/12 03:26:48;;;;;;;;;2.00;2.00;;;;;16.63;56.86;101822.03;5076994;27;46214;-71
2022/06/12 03:29:31;;;;;;;;;3.00;1.33;;;;;16.58;57.20;101822.34;5077120;27;45446;-69
2022/06/12 03:32:12;;;;;;;;;2.67;1.00;;;;;16.58;57.37;101827.72;5077058;27;45412;-67
2022/06/12 03:35:01;;;;;;;;;3.00;3.00;;;;;16.55;57.26;101824.34;5077191;27;45419;-68
2022/06/12 03:37:46;;;;;;;;;1.67;1.67;;;;;16.49;57.65;101817.53;5092465;27;46305;-67
2022/06/12 03:40:32;;;;;;;;;3.33;1.67;;;;;16.45;57.40;101821.38;5076654;27;45410;-67
2022/06/12 03:43:06;;;;;;;;;1.33;1.33;;;;;16.40;58.02;101829.69;5076858;27;45407;-68
2022/06/12 03:45:51;;;;;;;;;1.00;1.00;;;;;16.31;58.23;101819.53;5060697;28;45334;-70
2022/06/12 03:48:45;;;;;;;;;2.67;1.00;;;;;16.30;57.94;101817.78;5075279;28;45399;-69
2022/06/12 03:51:34;;;;;;;;;2.00;2.00;;;;;16.31;58.02;101818.66;5075987;28;45409;-69
2022/06/12 03:54:31;;;;;;;;;2.00;2.00;;;;;16.29;57.97;101816.06;5075214;28;45347;-67
2022/06/12 04:00:16;;;;;;;;;3.00;3.00;;;;;16.34;57.58;101819.31;5075971;28;45331;-70
2022/06/12 04:02:45;;;;;;;;;1.67;1.67;;;;;16.40;58.04;101816.25;5075678;27;45323;-67
2022/06/12 04:05:22;;;;;;;;;4.00;2.00;;;;;16.34;58.40;101813.09;5076840;27;45348;-66
2022/06/12 04:07:52;;;;;;;;;8.00;2.67;;;;;16.30;58.35;101801.69;5076662;27;45172;-68
2022/06/12 04:10:25;;;;;;;;;2.33;1.00;;;;;16.30;58.50;101807.06;5076036;27;45413;-66
2022/06/12 04:12:51;;;;;;;;;3.67;3.33;;;;;16.27;58.31;101801.84;5076122;27;45235;-70
2022/06/12 04:15:28;;;;;;;;;3.00;1.67;;;;;16.26;58.72;101800.13;5076074;27;45454;-68
2022/06/12 04:17:55;;;;;;;;;2.00;2.00;;;;;16.24;58.81;101802.03;5075925;27;45553;-68
2022/06/12 04:21:00;;;;;;;;;3.00;1.67;;;;;16.25;59.07;101809.13;5075441;28;46106;-69
2022/06/12 04:23:36;;;;;;;;;5.33;1.67;;;;;16.22;58.98;101815.56;5073616;28;45351;-67
2022/06/12 04:26:27;;;;;;;;;4.67;2.67;;;;;16.18;59.28;101808.66;5075923;27;45358;-69
2022/06/12 04:29:30;;;;;;;;;4.33;2.67;;;;;16.27;58.72;101807.22;5075579;28;45394;-71
2022/06/12 04:32:03;;;;;;;;;3.00;3.00;;;;;16.31;58.43;101808.78;5075525;27;45458;-69
2022/06/12 04:34:35;;;;;;;;;3.00;2.00;;;;;16.36;58.42;101814.72;5091387;27;45741;-69
2022/06/12 04:37:09;;;;;;;;;6.00;3.00;;;;;16.37;58.52;101818.28;5075877;27;45413;-70
2022/06/12 04:39:35;;;;;;;;;3.33;1.67;;;;;16.41;58.12;101827.88;5076001;27;45539;-71
2022/06/12 04:42:02;;;;;;;;;3.00;3.00;;;;;16.41;58.85;101820.69;5091433;27;45355;-69
2022/06/12 04:44:28;;;;;;;;;2.67;2.67;;;;;16.45;58.61;101821.38;5075673;27;45363;-68
2022/06/12 04:46:57;;;;;;;;;5.67;2.33;;;;;16.42;58.32;101822.44;5075762;27;45312;-68
2022/06/12 04:49:26;;;;;;;;;2.00;2.00;;;;;16.40;58.66;101824.31;5075847;27;46016;-70
2022/06/12 04:51:54;;;;;;;;;3.67;2.00;;;;;16.40;58.53;101820.75;5078309;27;46292;-67
2022/06/12 04:54:21;;;;;;;;;2.67;1.00;;;;;16.38;58.58;101812.81;5079082;28;45343;-68
2022/06/12 04:56:47;;;;;;;;;3.33;2.00;;;;;16.38;58.48;101812.81;5079303;28;45344;-70
2022/06/12 04:59:14;;;;;;;;;2.00;2.00;;;;;16.43;58.26;101818.78;5112630;27;45366;-68
2022/06/12 05:01:40;;;;;;;;;4.00;2.00;;;;;16.48;58.14;101813.97;5079141;27;46226;-67
2022/06/12 05:04:06;;;;;;;;;0.33;0.33;;;;;16.46;58.16;101812.34;5078829;27;45400;-67
2022/06/12 05:06:33;;;;;;;;;1.67;1.67;;;;;16.43;58.29;101813.41;5079278;27;45254;-67
2022/06/12 05:09:01;;;;;;;;;3.00;3.00;;;;;16.44;58.09;101815.13;5077736;28;45362;-69
2022/06/12 05:11:26;;;;;;;;;2.33;2.00;;;;;16.47;58.04;101814.94;5078617;28;46416;-70
2022/06/12 05:13:53;;;;;;;;;2.00;2.00;;;;;16.55;58.07;101819.84;5078559;27;45404;-66
2022/06/12 05:16:30;;;;;;;;;2.00;1.67;;;;;16.57;57.91;101819.75;5076818;28;45479;-68
2022/06/12 05:18:57;;;;;;;;;3.33;2.00;;;;;16.48;58.67;101816.66;5078917;27;45252;-67
2022/06/12 05:21:23;;;;;;;;;2.00;2.00;;;;;16.47;58.85;101809.56;5078533;27;45517;-68
2022/06/12 05:23:49;;;;;;;;;2.00;2.00;;;;;16.52;58.23;101811.97;5078883;27;45358;-70
2022/06/12 05:26:16;;;;;;;;;3.67;2.33;;;;;16.53;58.08;101809.19;5077888;27;45378;-68
2022/06/12 05:28:42;;;;;;;;;2.00;2.00;;;;;16.56;57.63;101802.78;5079337;27;45338;-68
2022/06/12 05:31:07;;;;;;;;;1.00;1.00;;;;;16.56;57.92;101801.91;5078215;27;46184;-69
2022/06/12 05:33:33;;;;;;;;;2.67;2.33;;;;;16.46;57.85;101802.47;5077279;28;45463;-69
2022/06/12 05:35:58;;;;;;;;;3.33;2.00;;;;;16.45;57.32;101810.63;5079027;28;45370;-69
2022/06/12 05:38:24;;;;;;;;;3.00;2.00;;;;;16.44;57.42;101809.75;5078786;27;45639;-70
2022/06/12 05:40:50;;;;;;;;;2.33;1.33;;;;;16.52;57.22;101804.78;5077121;27;47114;-68
2022/06/12 05:43:15;;;;;;;;;4.33;1.67;;;;;16.48;56.77;101787.13;5079279;27;45380;-68
2022/06/12 05:45:41;;;;;;;;;1.00;1.00;;;;;16.61;56.92;101807.84;5076770;27;45509;-67
2022/06/12 05:48:11;;;;;;;;;1.00;1.00;;;;;16.64;56.86;101810.34;5078676;27;45244;-68
2022/06/12 05:50:46;;;;;;;;;2.00;1.00;;;;;16.63;56.60;101805.94;5078103;27;46198;-66
2022/06/12 05:53:11;;;;;;;;;1.00;1.00;;;;;16.63;56.69;101811.31;5077889;27;45436;-70
2022/06/12 05:55:37;;;;;;;;;2.00;2.00;;;;;16.67;56.64;101815.53;5078043;27;45348;-69
2022/06/12 05:58:02;;;;;;;;;3.67;2.00;;;;;16.66;55.93;101813.78;5078384;27;45276;-68
2022/06/12 06:00:31;;;;;;;;;2.33;1.00;;;;;16.67;56.17;101820.91;5076615;27;46180;-68
2022/06/12 06:02:56;;;;;;;;;1.00;1.00;;;;;16.65;55.77;101822.81;5078137;27;45269;-68
2022/06/12 06:05:23;;;;;;;;;2.67;2.00;;;;;16.59;55.98;101825.88;5078228;27;45764;-69
2022/06/12 06:07:49;;;;;;;;;2.00;1.00;;;;;16.61;56.06;101829.34;5076930;27;45410;-70
2022/06/12 06:10:22;;;;;;;;;2.67;2.67;;;;;16.65;56.41;101825.50;5078218;27;45431;-69
2022/06/12 06:12:47;;;;;;;;;2.00;2.00;;;;;16.75;56.29;101827.56;5076455;27;45472;-69
2022/06/12 06:15:13;;;;;;;;;0.00;0.00;;;;;16.82;55.95;101833.44;5078960;27;45350;-68
2022/06/12 06:17:39;;;;;;;;;2.00;2.00;;;;;16.79;55.96;101839.81;5078545;27;45525;-68
2022/06/12 06:20:06;;;;;;;;;2.00;2.00;;;;;16.78;55.78;101834.56;5077451;27;45417;-67
2022/06/12 06:22:32;;;;;;;;;1.33;1.33;;;;;16.82;55.89;101837.94;5077837;27;45432;-66
2022/06/12 06:24:58;;;;;;;;;4.67;2.00;;;;;16.89;55.82;101831.19;5077778;27;45322;-70
2022/06/12 06:27:24;;;;;;;;;4.00;2.33;;;;;16.99;55.24;101841.28;5077938;28;45389;-71
2022/06/12 06:29:49;;;;;;;;;1.00;1.00;;;;;17.08;54.99;101838.03;5077595;28;45262;-70
2022/06/12 06:32:15;;;;;;;;;2.00;2.00;;;;;17.16;54.62;101839.34;5077972;27;46003;-69
2022/06/12 06:34:41;;;;;;;;;3.00;1.00;;;;;17.17;54.33;101833.00;5076480;27;45316;-69
2022/06/12 06:37:09;;;;;;;;;1.33;1.33;;;;;17.25;54.33;101838.75;5077815;27;45176;-67
2022/06/12 06:39:35;;;;;;;;;1.00;1.00;;;;;17.26;52.52;101849.41;5077517;27;45997;-69
2022/06/12 06:42:01;;;;;;;;;2.00;2.00;;;;;17.20;52.91;101839.06;5077080;27;45567;-69
2022/06/12 06:47:11;;;;;;;;;2.00;2.00;;;;;17.37;52.99;101844.22;5055478;28;45432;-68
2022/06/12 06:49:37;;;;;;;;;2.67;1.67;;;;;17.44;53.54;101844.66;5058351;28;45737;-68
2022/06/12 06:52:03;;;;;;;;;3.00;2.67;;;;;17.51;52.67;101846.00;5075594;28;45383;-69
2022/06/12 06:54:29;;;;;;;;;1.00;1.00;;;;;17.48;52.38;101845.34;5059112;28;45278;-69
2022/06/12 06:56:55;;;;;;;;;3.67;1.67;;;;;17.53;52.62;101843.22;5076803;28;45385;-68
2022/06/12 06:59:21;;;;;;;;;3.00;1.00;;;;;17.48;52.69;101845.34;5076781;27;46086;-64
2022/06/12 07:01:46;;;;;;;;;1.67;1.67;;;;;17.51;52.60;101839.75;5077298;27;45394;-65
2022/06/12 07:04:12;;;;;;;;;1.33;1.33;;;;;17.50;52.70;101851.47;5077069;27;45237;-67
2022/06/12 07:06:40;;;;;;;;;2.00;2.00;;;;;17.54;52.47;101845.78;5076104;27;45438;-63
2022/06/12 07:09:06;;;;;;;;;3.67;1.67;;;;;17.60;52.49;101845.41;5076126;27;45420;-69
2022/06/12 07:11:32;;;;;;;;;3.00;2.00;;;;;17.64;52.54;101835.31;5068318;27;45392;-67
2022/06/12 07:13:58;;;;;;;;;1.00;1.00;;;;;17.72;51.96;101842.91;5067093;28;45441;-66
2022/06/12 07:16:26;;;;;;;;;2.00;1.00;;;;;17.77;52.02;101857.78;5076728;27;45455;-67
2022/06/12 07:18:52;;;;;;;;;4.00;2.00;;;;;17.83;52.36;101860.03;5056757;27;46521;-66
2022/06/12 07:21:17;;;;;;;;;3.33;2.00;;;;;17.81;51.65;101848.53;5056093;28;45365;-66
2022/06/12 07:23:43;;;;;;;;;1.00;1.00;;;;;17.84;52.13;101853.72;5055882;28;45223;-65
2022/06/12 07:26:18;;;;;;;;;2.00;0.67;;;;;17.91;52.04;101843.41;5060189;28;45421;-64
2022/06/12 07:28:44;;;;;;;;;3.67;2.33;;;;;18.00;52.24;101848.19;5108702;27;48495;-64
2022/06/12 07:31:09;;;;;;;;;2.67;2.67;;;;;17.97;52.34;101843.00;5056161;27;45559;-64
2022/06/12 07:33:37;;;;;;;;;2.00;2.00;;;;;17.93;52.20;101842.31;5054084;28;45449;-64
2022/06/12 07:36:05;;;;;;;;;2.00;2.00;;;;;18.03;52.04;101845.28;5055433;28;45455;-64
2022/06/12 07:38:32;;;;;;;;;4.00;2.33;;;;;18.06;52.02;101844.19;5054917;28;46307;-64
2022/06/12 07:41:00;;;;;;;;;2.00;2.00;;;;;18.08;52.11;101840.41;5055281;28;45441;-63
2022/06/12 07:43:29;;;;;;;;;2.00;2.00;;;;;18.19;51.35;101854.03;5062142;28;45453;-62
2022/06/12 07:45:55;;;;;;;;;2.00;2.00;;;;;18.23;51.28;101849.31;5076070;27;45503;-59
2022/06/12 07:48:22;;;;;;;;;1.33;1.33;;;;;18.27;51.58;101848.13;5076122;27;46063;-63
2022/06/12 07:50:49;;;;;;;;;2.33;2.33;;;;;18.37;51.65;101864.53;5075675;27;45432;-65
2022/06/12 07:53:16;;;;;;;;;3.33;2.00;;;;;18.44;51.40;101852.34;5075179;27;45449;-64
2022/06/12 07:55:43;;;;;;;;;3.33;2.00;;;;;18.45;51.10;101854.06;5074184;28;45750;-62
2022/06/12 07:58:09;;;;;;;;;4.67;1.33;;;;;18.52;50.32;101850.00;5091010;27;47481;-66
2022/06/12 08:00:38;;;;;;;;;3.67;2.00;;;;;18.64;50.02;101854.56;5073994;27;45970;-69
2022/06/12 08:03:05;;;;;;;;;4.00;2.67;;;;;18.78;50.06;101846.38;5075425;28;45281;-64
2022/06/12 08:05:31;;;;;;;;;2.00;1.00;;;;;18.91;50.23;101846.38;5109403;27;45545;-63
2022/06/12 08:07:57;;;;;;;;;4.00;2.00;;;;;18.92;49.90;101842.69;5075888;27;46294;-69
2022/06/12 08:10:22;;;;;;;;;3.00;3.00;;;;;19.10;49.82;101845.91;5076346;27;45317;-67
2022/06/12 08:12:49;;;;;;;;;1.67;1.67;;;;;19.25;49.68;101839.38;5076259;27;45368;-68
2022/06/12 08:15:23;;;;;;;;;3.00;2.00;;;;;19.48;49.15;101836.84;5076125;27;45266;-67
2022/06/12 08:17:51;;;;;;;;;6.67;2.67;;;;;19.58;49.38;101846.03;5075843;27;46070;-65
2022/06/12 08:20:28;;;;;;;;;2.00;2.00;;;;;19.67;48.78;101845.34;5074356;28;45364;-65
2022/06/12 08:22:56;;;;;;;;;3.00;3.00;;;;;19.72;48.23;101829.66;5075874;27;45180;-68
2022/06/12 08:25:21;;;;;;;;;3.67;3.67;;;;;19.91;48.28;101824.59;5108910;27;45443;-64
2022/06/12 08:27:47;;;;;;;;;3.00;3.00;;;;;20.23;47.53;101830.25;5079216;27;46234;-64
2022/06/12 08:30:13;;;;;;;;;1.00;1.00;;;;;20.68;46.58;101835.75;5077668;27;45298;-67
2022/06/12 08:32:41;;;;;;;;;3.00;2.00;;;;;21.16;44.75;101833.69;5079668;27;45833;-67
2022/06/12 08:35:13;;;;;;;;;2.75;2.75;;;;;21.64;44.13;101827.97;5079714;27;46369;-67
2022/06/12 08:37:40;;;;;;;;;2.75;2.00;;;;;22.04;42.76;101821.91;5079249;27;46381;-67
2022/06/12 08:40:16;;;;;;;;;6.50;4.75;;;;;22.36;41.86;101814.63;5094957;27;45484;-66
2022/06/12 08:43:19;;;;;;;;;2.00;2.00;;;;;22.82;40.67;101816.03;5078080;28;45377;-69
2022/06/12 08:45:48;;;;;;;;;3.00;1.75;;;;;23.39;39.41;101811.81;5079499;28;45418;-66
2022/06/12 08:48:32;;;;;;;;;2.50;2.50;;;;;23.81;39.92;101808.91;5071512;28;45440;-69
2022/06/12 08:51:12;;;;;;;;;1.40;1.40;;;;;24.23;37.73;101803.19;5074099;27;45257;-66
2022/06/12 08:53:56;;;;;;;;;1.40;1.40;;;;;24.60;36.94;101804.09;5077915;28;45570;-63
2022/06/12 08:56:28;;;;;;;;;0.60;0.40;;;;;24.77;35.98;101804.34;5079830;27;45412;-68
2022/06/12 08:59:19;;;;;;;;;1.20;1.20;;;;;25.24;35.45;101800.56;5079461;27;45277;-64
2022/06/12 09:01:45;;;;;;;;;1.80;1.80;;;;;25.69;36.38;101796.16;5079034;27;45447;-64
2022/06/12 09:04:14;;;;;;;;;1.00;1.00;;;;;26.19;35.57;101788.25;5079268;28;45395;-69
2022/06/12 09:06:48;;;;;;;;;2.20;2.20;;;;;26.39;33.71;101780.75;5078957;27;45479;-66
2022/06/12 09:09:19;;;;;;;;;2.80;2.00;;;;;26.45;34.04;101789.16;5078877;27;45345;-69
2022/06/12 09:12:11;;;;;;;;;6.20;3.80;;;;;26.72;35.18;101790.00;5078346;27;45291;-65
2022/06/12 09:14:55;;;;;;;;;2.20;1.00;;;;;27.30;34.66;101781.03;5067237;27;45410;-70
2022/06/12 09:17:37;;;;;;;;;3.40;1.60;;;;;27.87;32.50;101782.03;5095242;27;46126;-73
2022/06/12 09:20:09;;;;;;;;;1.80;1.00;;;;;28.23;31.78;101783.53;5076874;27;47355;-69
2022/06/12 09:22:49;;;;;;;;;1.60;1.00;;;;;28.36;32.34;101775.69;5077837;27;45387;-69
2022/06/12 09:25:27;;;;;;;;;0.80;0.80;;;;;28.69;31.49;101777.34;5076586;28;45398;-63
2022/06/12 09:28:04;;;;;;;;;1.00;1.00;;;;;28.54;28.91;101787.31;5077907;28;45348;-64
2022/06/12 09:30:43;;;;;;;;;0.00;0.00;;;;;28.59;29.29;101779.41;5077265;27;45313;-64
2022/06/12 09:33:15;;;;;;;;;2.80;1.40;;;;;28.69;30.37;101782.81;5077320;27;45314;-64
2022/06/12 09:36:03;;;;;;;;;1.00;1.00;;;;;28.81;28.08;101779.69;5077668;27;45351;-67
2022/06/12 09:38:28;;;;;;;;;1.40;1.40;;;;;29.35;29.41;101767.81;5092743;27;45705;-68
2022/06/12 09:41:01;;;;;;;;;0.75;0.75;;;;;29.67;27.84;101771.38;5077527;28;45299;-66
2022/06/12 09:43:39;;;;;;;;;1.00;1.00;;;;;29.95;28.72;101775.31;5077220;27;45172;-68
2022/06/12 09:46:28;;;;;;;;;3.00;0.20;;;;;30.04;26.45;101778.81;5077601;27;45540;-67
2022/06/12 09:49:05;;;;;;;;;1.00;1.00;;;;;29.84;26.55;101786.72;5075394;28;45602;-67
2022/06/12 09:51:52;;;;;;;;;2.00;0.60;;;;;29.87;27.23;101769.88;5076574;27;46158;-64
2022/06/12 09:54:23;;;;;;;;;1.20;1.00;;;;;29.86;28.79;101781.88;5076966;27;45245;-68
2022/06/12 09:56:58;;;;;;;;;2.60;1.60;;;;;29.75;27.77;101786.94;5075613;27;45376;-63
2022/06/12 09:59:55;;;;;;;;;1.00;1.00;;;;;29.54;27.69;101784.84;5078045;27;45416;-67
2022/06/12 10:02:36;;;;;;;;;2.00;2.00;;;;;29.72;28.94;101782.69;5075521;28;46711;-67
2022/06/12 10:05:16;;;;;;;;;3.00;1.80;;;;;29.55;28.50;101781.91;5075727;27;45496;-69
2022/06/12 10:07:48;;;;;;;;;3.00;3.00;;;;;29.81;27.68;101787.03;5076793;27;45242;-66
2022/06/12 10:10:29;;;;;;;;;2.00;2.00;;;;;29.89;28.62;101778.78;5076730;27;45526;-68
2022/06/12 10:12:59;;;;;;;;;1.20;0.60;;;;;29.57;27.14;101779.88;5075448;27;46475;-65
2022/06/12 10:15:34;;;;;;;;;3.20;1.40;;;;;29.18;28.36;101776.31;5077122;28;45306;-58
2022/06/12 10:18:27;;;;;;;;;4.50;2.00;;;;;29.17;28.97;101771.84;5035618;27;1163882;-53
2022/06/12 10:20:57;;;;;;;;;2.00;2.00;;;;;29.21;29.88;101779.53;5077521;27;45655;-54
2022/06/12 10:23:22;;;;;;;;;2.80;2.80;;;;;29.37;29.33;101767.63;5077411;27;45796;-54
2022/06/12 10:25:55;;;;;;;;;2.75;2.75;;;;;29.16;31.25;101775.63;5077408;27;45272;-52
2022/06/12 10:28:27;;;;;;;;;3.20;3.20;;;;;29.17;30.56;101766.38;5077906;27;45404;-54
2022/06/12 10:31:18;;;;;;;;;2.60;2.60;;;;;28.65;30.48;101767.78;5110660;27;45344;-55
2022/06/12 10:33:52;;;;;;;;;1.40;1.40;;;;;27.95;31.40;101772.97;5075878;28;47284;-52
2022/06/12 10:36:30;;;;;;;;;2.80;0.80;;;;;27.69;31.46;101761.34;5077189;27;45263;-55
2022/06/12 10:39:09;;;;;;;;;4.00;1.80;;;;;27.36;32.27;101761.25;5078110;27;45342;-53
2022/06/12 10:42:01;;;;;;;;;4.60;2.00;;;;;27.14;32.47;101746.34;5110171;27;46158;-51
2022/06/12 10:44:36;;;;;;;;;2.00;2.00;;;;;26.91;32.71;101758.84;5077189;28;46043;-52
2022/06/12 10:47:21;;;;;;;;;4.00;4.00;;;;;26.58;33.51;101753.25;5077264;27;45499;-52
2022/06/12 10:50:00;;;;;;;;;2.00;2.00;;;;;26.43;34.14;101743.94;5075136;27;45415;-54
2022/06/12 10:52:25;;;;;;;;;5.00;3.80;;;;;26.27;33.41;101733.75;5077446;27;45399;-52
2022/06/12 10:54:52;;;;;;;;;2.00;2.00;;;;;25.90;33.79;101749.50;5077022;27;45235;-55
2022/06/12 10:57:32;;;;;;;;;4.00;3.00;;;;;25.39;35.13;101742.84;5110381;27;45862;-55
2022/06/12 11:00:08;;;;;;;;;2.00;2.00;;;;;25.11;35.54;101742.03;5077879;27;45402;-51
2022/06/12 11:03:21;;;;;;;;;2.20;2.20;;;;;25.00;35.50;101732.19;5077377;27;45404;-53
2022/06/12 11:06:24;;;;;;;;;3.60;3.60;;;;;25.09;35.07;101738.63;5054175;28;46309;-52
2022/06/12 11:09:09;;;;;;;;;3.20;2.40;;;;;25.08;35.46;101731.47;5075292;28;45350;-55
2022/06/12 11:11:38;;;;;;;;;2.80;1.20;;;;;24.84;33.63;101740.16;5076897;28;45381;-56
2022/06/12 11:14:26;;;;;;;;;1.00;1.00;;;;;24.74;33.70;101731.19;5078292;27;45521;-57
2022/06/12 11:16:56;;;;;;;;;3.75;3.00;;;;;24.65;34.07;101724.78;5076876;28;46302;-51
2022/06/12 11:19:39;;;;;;;;;3.00;3.00;;;;;24.63;33.70;101724.09;5076411;28;45591;-53
2022/06/12 11:22:22;;;;;;;;;1.40;1.40;;;;;24.52;33.17;101722.41;5109651;27;45308;-54
2022/06/12 11:24:57;;;;;;;;;3.00;1.75;;;;;24.52;32.51;101722.41;5109292;27;45493;-54
2022/06/12 11:28:10;;;;;;;;;0.00;0.00;;;;;24.32;32.69;101705.28;5076511;27;47184;-52
2022/06/12 11:31:03;;;;;;;;;3.80;3.80;;;;;24.47;33.05;101707.53;5056774;28;45399;-53
2022/06/12 11:33:36;;;;;;;;;1.00;1.00;;;;;24.45;31.84;101713.13;5075464;28;45552;-57
2022/06/12 11:36:24;;;;;;;;;1.50;0.00;;;;;24.32;31.31;101702.56;5077151;27;45433;-54
2022/06/12 11:39:01;;;;;;;;;1.00;1.00;;;;;24.28;31.87;101703.00;5076307;28;46389;-57
2022/06/12 11:41:37;;;;;;;;;2.60;2.60;;;;;24.30;32.59;101695.59;5076135;27;45303;-55
2022/06/12 11:44:12;;;;;;;;;1.00;1.00;;;;;24.39;31.87;101690.13;5076569;27;45345;-60
2022/06/12 11:46:44;;;;;;;;;2.25;2.00;;;;;24.62;31.85;101696.03;5076676;27;45251;-62
2022/06/12 11:49:25;;;;;;;;;2.00;2.00;;;;;24.69;31.09;101675.38;5075497;27;45486;-64
2022/06/12 11:51:59;;;;;;;;;3.80;1.20;;;;;24.64;31.13;101680.41;5056036;28;45349;-66
2022/06/12 11:54:34;;;;;;;;;2.60;2.00;;;;;24.70;31.22;101671.63;5088484;27;45317;-68
2022/06/12 11:57:17;;;;;;;;;1.25;1.25;;;;;24.71;32.05;101673.34;5056915;28;45569;-65
2022/06/12 12:00:22;;;;;;;;;3.00;1.80;;;;;24.80;32.25;101665.28;5055558;28;45426;-67
2022/06/12 12:03:25;;;;;;;;;4.40;3.00;;;;;24.88;31.77;101670.84;5037528;28;45426;-65
2022/06/12 12:06:06;;;;;;;;;3.20;2.00;;;;;25.00;32.22;101661.41;5055879;28;45611;-66